sensor_id;sensor_type;location;lat;lon;timestamp;pressure;altitude;pressure_sealevel;temperature;humidity
63556;BME280;49700;48.072;7.800;2023-08-20T00:00:07;99732.59;;;25.32;nan
63556;BME280;49700;48.072;7.800;2023-08-20T00:02:37;99736.50;;;25.29;nan
63556;BME280;49700;48.072;7.800;2023-08-20T00:05:05;99729.00;;;25.25;nan
63556;BME280;49700;48.072;7.800;2023-08-20T00:07:31;99727.91;;;25.19;nan
63556;BME280;49700;48.072;7.800;2023-08-20T00:09:57;99733.56;;;25.09;nan
63556;BME280;49700;48.072;7.800;2023-08-20T00:12:22;99736.53;;;25.00;nan
63556;BME280;49700;48.072;7.800;2023-08-20T00:14:56;99735.66;;;24.92;nan
63556;BME280;49700;48.072;7.800;2023-08-20T00:17:24;99731.47;;;24.90;nan
63556;BME280;49700;48.072;7.800;2023-08-20T00:19:55;99727.09;;;24.89;nan
63556;BME280;49700;48.072;7.800;2023-08-20T00:22:24;99734.34;;;24.88;nan
63556;BME280;49700;48.072;7.800;2023-08-20T00:24:52;99730.19;;;24.86;nan
63556;BME280;49700;48.072;7.800;2023-08-20T00:27:18;99723.69;;;24.80;nan
63556;BME280;49700;48.072;7.800;2023-08-20T00:29:43;99731.31;;;24.77;nan
63556;BME280;49700;48.072;7.800;2023-08-20T00:32:09;99731.31;;;24.77;nan
63556;BME280;49700;48.072;7.800;2023-08-20T00:34:34;99721.19;;;24.79;nan
63556;BME280;49700;48.072;7.800;2023-08-20T00:37:00;99724.16;;;24.84;nan
63556;BME280;49700;48.072;7.800;2023-08-20T00:39:26;99727.66;;;24.84;nan
63556;BME280;49700;48.072;7.800;2023-08-20T00:41:53;99729.06;;;24.80;nan
63556;BME280;49700;48.072;7.800;2023-08-20T00:44:18;99729.81;;;24.74;nan
63556;BME280;49700;48.072;7.800;2023-08-20T00:46:43;99718.81;;;24.69;nan
63556;BME280;49700;48.072;7.800;2023-08-20T00:49:12;99724.94;;;24.63;nan
63556;BME280;49700;48.072;7.800;2023-08-20T00:51:37;99726.31;;;24.59;nan
63556;BME280;49700;48.072;7.800;2023-08-20T00:54:05;99724.75;;;24.49;nan
63556;BME280;49700;48.072;7.800;2023-08-20T00:56:32;99727.50;;;24.41;nan
63556;BME280;49700;48.072;7.800;2023-08-20T00:58:58;99719.78;;;24.38;nan
63556;BME280;49700;48.072;7.800;2023-08-20T01:01:24;99723.50;;;24.37;nan
63556;BME280;49700;48.072;7.800;2023-08-20T01:03:50;99736.81;;;24.31;nan
63556;BME280;49700;48.072;7.800;2023-08-20T01:06:22;99738.19;;;24.26;nan
63556;BME280;49700;48.072;7.800;2023-08-20T01:08:55;99732.75;;;24.20;nan
63556;BME280;49700;48.072;7.800;2023-08-20T01:11:28;99734.09;;;24.16;nan
63556;BME280;49700;48.072;7.800;2023-08-20T01:13:54;99736.13;;;24.14;nan
63556;BME280;49700;48.072;7.800;2023-08-20T01:16:20;99741.50;;;24.14;nan
63556;BME280;49700;48.072;7.800;2023-08-20T01:18:47;99740.66;;;24.13;nan
63556;BME280;49700;48.072;7.800;2023-08-20T01:21:26;99745.22;;;24.13;nan
63556;BME280;49700;48.072;7.800;2023-08-20T01:26:33;99752.66;;;24.02;nan
63556;BME280;49700;48.072;7.800;2023-08-20T01:29:00;99752.28;;;23.91;nan
63556;BME280;49700;48.072;7.800;2023-08-20T01:31:27;99752.34;;;23.82;nan
63556;BME280;49700;48.072;7.800;2023-08-20T01:33:53;99764.44;;;23.78;nan
63556;BME280;49700;48.072;7.800;2023-08-20T01:36:20;99774.16;;;23.79;nan
63556;BME280;49700;48.072;7.800;2023-08-20T01:38:45;99771.66;;;23.78;nan
63556;BME280;49700;48.072;7.800;2023-08-20T01:41:11;99768.66;;;23.73;nan
63556;BME280;49700;48.072;7.800;2023-08-20T01:43:36;99754.28;;;23.66;nan
63556;BME280;49700;48.072;7.800;2023-08-20T01:46:02;99765.72;;;23.59;nan
63556;BME280;49700;48.072;7.800;2023-08-20T01:48:27;99778.47;;;23.57;nan
63556;BME280;49700;48.072;7.800;2023-08-20T01:50:52;99784.47;;;23.59;nan
63556;BME280;49700;48.072;7.800;2023-08-20T01:53:18;99780.16;;;23.58;nan
63556;BME280;49700;48.072;7.800;2023-08-20T01:55:43;99784.19;;;23.54;nan
63556;BME280;49700;48.072;7.800;2023-08-20T01:58:09;99786.53;;;23.49;nan
63556;BME280;49700;48.072;7.800;2023-08-20T02:00:34;99789.84;;;23.36;nan
63556;BME280;49700;48.072;7.800;2023-08-20T02:03:00;99790.22;;;23.25;nan
63556;BME280;49700;48.072;7.800;2023-08-20T02:05:25;99788.56;;;23.16;nan
63556;BME280;49700;48.072;7.800;2023-08-20T02:07:51;99796.50;;;23.09;nan
63556;BME280;49700;48.072;7.800;2023-08-20T02:10:16;99791.34;;;23.00;nan
63556;BME280;49700;48.072;7.800;2023-08-20T02:12:42;99800.88;;;22.94;nan
63556;BME280;49700;48.072;7.800;2023-08-20T02:15:08;99797.16;;;22.95;nan
63556;BME280;49700;48.072;7.800;2023-08-20T02:17:34;99790.50;;;22.99;nan
63556;BME280;49700;48.072;7.800;2023-08-20T02:20:01;99793.66;;;23.03;nan
63556;BME280;49700;48.072;7.800;2023-08-20T02:22:28;99786.78;;;23.00;nan
63556;BME280;49700;48.072;7.800;2023-08-20T02:24:54;99787.63;;;23.01;nan
63556;BME280;49700;48.072;7.800;2023-08-20T02:27:20;99782.09;;;23.02;nan
63556;BME280;49700;48.072;7.800;2023-08-20T02:29:45;99769.53;;;23.03;nan
63556;BME280;49700;48.072;7.800;2023-08-20T02:32:14;99768.38;;;23.05;nan
63556;BME280;49700;48.072;7.800;2023-08-20T02:34:39;99762.34;;;23.03;nan
63556;BME280;49700;48.072;7.800;2023-08-20T02:37:05;99766.53;;;22.97;nan
63556;BME280;49700;48.072;7.800;2023-08-20T02:39:30;99765.56;;;22.90;nan
63556;BME280;49700;48.072;7.800;2023-08-20T02:41:56;99761.06;;;22.83;nan
63556;BME280;49700;48.072;7.800;2023-08-20T02:44:22;99759.25;;;22.75;nan
63556;BME280;49700;48.072;7.800;2023-08-20T02:46:47;99758.06;;;22.78;nan
63556;BME280;49700;48.072;7.800;2023-08-20T02:49:13;99755.72;;;22.83;nan
63556;BME280;49700;48.072;7.800;2023-08-20T02:51:42;99761.19;;;22.89;nan
63556;BME280;49700;48.072;7.800;2023-08-20T02:54:08;99760.38;;;22.97;nan
63556;BME280;49700;48.072;7.800;2023-08-20T02:56:34;99755.31;;;23.02;nan
63556;BME280;49700;48.072;7.800;2023-08-20T02:58:59;99765.88;;;23.04;nan
63556;BME280;49700;48.072;7.800;2023-08-20T03:01:26;99764.72;;;22.98;nan
63556;BME280;49700;48.072;7.800;2023-08-20T03:03:53;99755.31;;;22.94;nan
63556;BME280;49700;48.072;7.800;2023-08-20T03:06:18;99757.34;;;22.92;nan
63556;BME280;49700;48.072;7.800;2023-08-20T03:08:44;99759.34;;;22.90;nan
63556;BME280;49700;48.072;7.800;2023-08-20T03:11:09;99757.72;;;22.81;nan
63556;BME280;49700;48.072;7.800;2023-08-20T03:13:35;99758.25;;;22.68;nan
63556;BME280;49700;48.072;7.800;2023-08-20T03:16:00;99752.28;;;22.58;nan
63556;BME280;49700;48.072;7.800;2023-08-20T03:18:26;99747.09;;;22.56;nan
63556;BME280;49700;48.072;7.800;2023-08-20T03:20:54;99738.91;;;22.58;nan
63556;BME280;49700;48.072;7.800;2023-08-20T03:23:24;99742.06;;;22.61;nan
63556;BME280;49700;48.072;7.800;2023-08-20T03:25:50;99734.50;;;22.65;nan
63556;BME280;49700;48.072;7.800;2023-08-20T03:28:17;99737.19;;;22.65;nan
63556;BME280;49700;48.072;7.800;2023-08-20T03:30:46;99721.81;;;22.59;nan
63556;BME280;49700;48.072;7.800;2023-08-20T03:33:16;99724.34;;;22.52;nan
63556;BME280;49700;48.072;7.800;2023-08-20T03:35:42;99729.56;;;22.45;nan
63556;BME280;49700;48.072;7.800;2023-08-20T03:38:08;99724.69;;;22.41;nan
63556;BME280;49700;48.072;7.800;2023-08-20T03:40:34;99722.22;;;22.39;nan
63556;BME280;49700;48.072;7.800;2023-08-20T03:43:01;99726.03;;;22.45;nan
63556;BME280;49700;48.072;7.800;2023-08-20T03:45:31;99724.69;;;22.49;nan
63556;BME280;49700;48.072;7.800;2023-08-20T03:47:56;99735.03;;;22.52;nan
63556;BME280;49700;48.072;7.800;2023-08-20T03:50:22;99740.38;;;22.52;nan
63556;BME280;49700;48.072;7.800;2023-08-20T03:52:47;99748.28;;;22.45;nan
63556;BME280;49700;48.072;7.800;2023-08-20T03:55:13;99754.16;;;22.41;nan
63556;BME280;49700;48.072;7.800;2023-08-20T03:57:38;99754.00;;;22.34;nan
63556;BME280;49700;48.072;7.800;2023-08-20T04:00:04;99758.34;;;22.27;nan
63556;BME280;49700;48.072;7.800;2023-08-20T04:02:40;99760.03;;;22.28;nan
63556;BME280;49700;48.072;7.800;2023-08-20T04:05:06;99756.34;;;22.29;nan
63556;BME280;49700;48.072;7.800;2023-08-20T04:07:31;99746.13;;;22.33;nan
63556;BME280;49700;48.072;7.800;2023-08-20T04:09:56;99742.13;;;22.37;nan
63556;BME280;49700;48.072;7.800;2023-08-20T04:12:22;99746.31;;;22.39;nan
63556;BME280;49700;48.072;7.800;2023-08-20T04:14:47;99759.00;;;22.45;nan
63556;BME280;49700;48.072;7.800;2023-08-20T04:17:13;99763.34;;;22.46;nan
63556;BME280;49700;48.072;7.800;2023-08-20T04:19:38;99758.16;;;22.45;nan
63556;BME280;49700;48.072;7.800;2023-08-20T04:22:04;99767.84;;;22.46;nan
63556;BME280;49700;48.072;7.800;2023-08-20T04:24:33;99777.56;;;22.47;nan
63556;BME280;49700;48.072;7.800;2023-08-20T04:26:59;99777.72;;;22.45;nan
63556;BME280;49700;48.072;7.800;2023-08-20T04:29:26;99773.22;;;22.46;nan
63556;BME280;49700;48.072;7.800;2023-08-20T04:31:52;99779.91;;;22.50;nan
63556;BME280;49700;48.072;7.800;2023-08-20T04:34:18;99782.25;;;22.53;nan
63556;BME280;49700;48.072;7.800;2023-08-20T04:36:47;99780.72;;;22.50;nan
63556;BME280;49700;48.072;7.800;2023-08-20T04:39:13;99785.91;;;22.52;nan
63556;BME280;49700;48.072;7.800;2023-08-20T04:41:43;99784.72;;;22.54;nan
63556;BME280;49700;48.072;7.800;2023-08-20T04:44:13;99785.59;;;22.55;nan
63556;BME280;49700;48.072;7.800;2023-08-20T04:46:39;99786.56;;;22.54;nan
63556;BME280;49700;48.072;7.800;2023-08-20T04:49:04;99783.41;;;22.50;nan
63556;BME280;49700;48.072;7.800;2023-08-20T04:51:29;99787.94;;;22.50;nan
63556;BME280;49700;48.072;7.800;2023-08-20T04:53:55;99789.44;;;22.52;nan
63556;BME280;49700;48.072;7.800;2023-08-20T04:56:21;99786.56;;;22.54;nan
63556;BME280;49700;48.072;7.800;2023-08-20T04:58:46;99789.09;;;22.56;nan
63556;BME280;49700;48.072;7.800;2023-08-20T05:01:18;99789.75;;;22.58;nan
63556;BME280;49700;48.072;7.800;2023-08-20T05:03:44;99788.41;;;22.62;nan
63556;BME280;49700;48.072;7.800;2023-08-20T05:06:09;99799.59;;;22.65;nan
63556;BME280;49700;48.072;7.800;2023-08-20T05:08:35;99799.91;;;22.70;nan
63556;BME280;49700;48.072;7.800;2023-08-20T05:11:00;99810.81;;;22.77;nan
63556;BME280;49700;48.072;7.800;2023-08-20T05:13:26;99806.59;;;22.83;nan
63556;BME280;49700;48.072;7.800;2023-08-20T05:15:52;99815.78;;;22.88;nan
63556;BME280;49700;48.072;7.800;2023-08-20T05:18:17;99817.75;;;22.94;nan
63556;BME280;49700;48.072;7.800;2023-08-20T05:20:42;99814.63;;;22.99;nan
63556;BME280;49700;48.072;7.800;2023-08-20T05:23:08;99811.59;;;23.02;nan
63556;BME280;49700;48.072;7.800;2023-08-20T05:25:33;99813.91;;;23.05;nan
63556;BME280;49700;48.072;7.800;2023-08-20T05:27:59;99824.94;;;23.10;nan
63556;BME280;49700;48.072;7.800;2023-08-20T05:30:26;99827.94;;;23.15;nan
63556;BME280;49700;48.072;7.800;2023-08-20T05:32:51;99825.75;;;23.19;nan
63556;BME280;49700;48.072;7.800;2023-08-20T05:35:17;99830.28;;;23.18;nan
63556;BME280;49700;48.072;7.800;2023-08-20T05:37:43;99826.94;;;23.16;nan
63556;BME280;49700;48.072;7.800;2023-08-20T05:40:09;99830.78;;;23.14;nan
63556;BME280;49700;48.072;7.800;2023-08-20T05:42:44;99829.94;;;23.13;nan
63556;BME280;49700;48.072;7.800;2023-08-20T05:45:10;99834.84;;;23.10;nan
63556;BME280;49700;48.072;7.800;2023-08-20T05:47:35;99826.44;;;23.13;nan
63556;BME280;49700;48.072;7.800;2023-08-20T05:50:02;99827.59;;;23.18;nan
63556;BME280;49700;48.072;7.800;2023-08-20T05:52:27;99834.34;;;23.46;nan
63556;BME280;49700;48.072;7.800;2023-08-20T05:54:53;99836.75;;;23.72;nan
63556;BME280;49700;48.072;7.800;2023-08-20T05:57:21;99837.03;;;24.00;nan
63556;BME280;49700;48.072;7.800;2023-08-20T05:59:46;99837.63;;;24.33;nan
63556;BME280;49700;48.072;7.800;2023-08-20T06:02:16;99840.41;;;24.63;nan
63556;BME280;49700;48.072;7.800;2023-08-20T06:04:43;99837.19;;;24.82;nan
63556;BME280;49700;48.072;7.800;2023-08-20T06:07:09;99839.59;;;24.92;nan
63556;BME280;49700;48.072;7.800;2023-08-20T06:09:34;99840.06;;;24.95;nan
63556;BME280;49700;48.072;7.800;2023-08-20T06:12:00;99837.09;;;25.05;nan
63556;BME280;49700;48.072;7.800;2023-08-20T06:14:25;99839.88;;;25.42;nan
63556;BME280;49700;48.072;7.800;2023-08-20T06:16:51;99833.06;;;25.97;nan
63556;BME280;49700;48.072;7.800;2023-08-20T06:19:16;99833.66;;;26.63;nan
63556;BME280;49700;48.072;7.800;2023-08-20T06:21:43;99832.44;;;27.35;nan
63556;BME280;49700;48.072;7.800;2023-08-20T06:24:11;99832.44;;;28.04;nan
63556;BME280;49700;48.072;7.800;2023-08-20T06:26:37;99831.19;;;28.66;nan
63556;BME280;49700;48.072;7.800;2023-08-20T06:29:02;99836.03;;;29.29;nan
63556;BME280;49700;48.072;7.800;2023-08-20T06:31:28;99837.47;;;29.83;nan
63556;BME280;49700;48.072;7.800;2023-08-20T06:33:53;99836.56;;;30.28;nan
63556;BME280;49700;48.072;7.800;2023-08-20T06:36:18;99843.91;;;30.71;nan
63556;BME280;49700;48.072;7.800;2023-08-20T06:38:44;99842.97;;;31.02;nan
63556;BME280;49700;48.072;7.800;2023-08-20T06:41:09;99839.13;;;31.28;nan
63556;BME280;49700;48.072;7.800;2023-08-20T06:43:35;99836.28;;;31.41;nan
63556;BME280;49700;48.072;7.800;2023-08-20T06:46:00;99838.06;;;31.47;nan
63556;BME280;49700;48.072;7.800;2023-08-20T06:48:25;99836.13;;;31.55;nan
63556;BME280;49700;48.072;7.800;2023-08-20T06:50:52;99837.09;;;31.42;nan
63556;BME280;49700;48.072;7.800;2023-08-20T06:53:17;99848.31;;;31.45;nan
63556;BME280;49700;48.072;7.800;2023-08-20T06:55:42;99842.44;;;31.48;nan
63556;BME280;49700;48.072;7.800;2023-08-20T06:58:08;99851.13;;;31.39;nan
63556;BME280;49700;48.072;7.800;2023-08-20T07:00:34;99856.84;;;31.12;nan
63556;BME280;49700;48.072;7.800;2023-08-20T07:03:00;99865.72;;;30.76;nan
63556;BME280;49700;48.072;7.800;2023-08-20T07:05:25;99851.31;;;30.32;nan
63556;BME280;49700;48.072;7.800;2023-08-20T07:08:00;99859.94;;;29.90;nan
63556;BME280;49700;48.072;7.800;2023-08-20T07:10:27;99856.31;;;29.58;nan
63556;BME280;49700;48.072;7.800;2023-08-20T07:12:53;99860.41;;;29.29;nan
63556;BME280;49700;48.072;7.800;2023-08-20T07:15:18;99864.38;;;29.26;nan
63556;BME280;49700;48.072;7.800;2023-08-20T07:17:43;99865.31;;;29.45;nan
63556;BME280;49700;48.072;7.800;2023-08-20T07:20:09;99864.19;;;29.73;nan
63556;BME280;49700;48.072;7.800;2023-08-20T07:22:35;99877.88;;;29.85;nan
63556;BME280;49700;48.072;7.800;2023-08-20T07:25:00;99864.81;;;30.07;nan
63556;BME280;49700;48.072;7.800;2023-08-20T07:27:26;99867.56;;;30.38;nan
63556;BME280;49700;48.072;7.800;2023-08-20T07:29:58;99870.13;;;30.77;nan
63556;BME280;49700;48.072;7.800;2023-08-20T07:32:24;99859.88;;;31.22;nan
63556;BME280;49700;48.072;7.800;2023-08-20T07:34:50;99864.41;;;31.77;nan
63556;BME280;49700;48.072;7.800;2023-08-20T07:37:15;99857.22;;;32.13;nan
63556;BME280;49700;48.072;7.800;2023-08-20T07:39:41;99868.81;;;32.20;nan
63556;BME280;49700;48.072;7.800;2023-08-20T07:42:06;99858.66;;;32.15;nan
63556;BME280;49700;48.072;7.800;2023-08-20T07:44:32;99864.19;;;31.79;nan
63556;BME280;49700;48.072;7.800;2023-08-20T07:46:57;99866.63;;;31.31;nan
63556;BME280;49700;48.072;7.800;2023-08-20T07:49:22;99871.31;;;31.06;nan
63556;BME280;49700;48.072;7.800;2023-08-20T07:51:48;99872.81;;;31.02;nan
63556;BME280;49700;48.072;7.800;2023-08-20T07:54:15;99876.00;;;31.17;nan
63556;BME280;49700;48.072;7.800;2023-08-20T07:56:42;99869.31;;;31.38;nan
63556;BME280;49700;48.072;7.800;2023-08-20T07:59:07;99872.44;;;31.53;nan
63556;BME280;49700;48.072;7.800;2023-08-20T08:01:32;99866.44;;;31.82;nan
63556;BME280;49700;48.072;7.800;2023-08-20T08:03:58;99868.75;;;32.38;nan
63556;BME280;49700;48.072;7.800;2023-08-20T08:06:23;99861.34;;;33.04;nan
63556;BME280;49700;48.072;7.800;2023-08-20T08:08:49;99861.47;;;33.50;nan
63556;BME280;49700;48.072;7.800;2023-08-20T08:11:14;99862.56;;;33.78;nan
63556;BME280;49700;48.072;7.800;2023-08-20T08:13:40;99861.63;;;33.84;nan
63556;BME280;49700;48.072;7.800;2023-08-20T08:16:05;99867.69;;;34.03;nan
63556;BME280;49700;48.072;7.800;2023-08-20T08:18:31;99864.66;;;34.33;nan
63556;BME280;49700;48.072;7.800;2023-08-20T08:20:56;99866.63;;;34.37;nan
63556;BME280;49700;48.072;7.800;2023-08-20T08:23:22;99864.84;;;34.43;nan
63556;BME280;49700;48.072;7.800;2023-08-20T08:25:47;99864.25;;;34.41;nan
63556;BME280;49700;48.072;7.800;2023-08-20T08:28:12;99861.13;;;34.32;nan
63556;BME280;49700;48.072;7.800;2023-08-20T08:30:38;99855.41;;;34.34;nan
63556;BME280;49700;48.072;7.800;2023-08-20T08:33:05;99867.13;;;34.34;nan
63556;BME280;49700;48.072;7.800;2023-08-20T08:35:30;99870.84;;;34.45;nan
63556;BME280;49700;48.072;7.800;2023-08-20T08:37:56;99867.16;;;34.51;nan
63556;BME280;49700;48.072;7.800;2023-08-20T08:40:23;99864.00;;;34.43;nan
63556;BME280;49700;48.072;7.800;2023-08-20T08:42:50;99866.31;;;34.17;nan
63556;BME280;49700;48.072;7.800;2023-08-20T08:45:18;99862.69;;;34.00;nan
63556;BME280;49700;48.072;7.800;2023-08-20T08:47:45;99866.81;;;33.85;nan
63556;BME280;49700;48.072;7.800;2023-08-20T08:50:10;99868.44;;;33.86;nan
63556;BME280;49700;48.072;7.800;2023-08-20T08:52:37;99865.50;;;33.88;nan
63556;BME280;49700;48.072;7.800;2023-08-20T08:55:05;99873.97;;;33.75;nan
63556;BME280;49700;48.072;7.800;2023-08-20T08:57:33;99876.34;;;33.71;nan
63556;BME280;49700;48.072;7.800;2023-08-20T08:59:58;99874.72;;;33.58;nan
63556;BME280;49700;48.072;7.800;2023-08-20T09:02:23;99872.97;;;33.40;nan
63556;BME280;49700;48.072;7.800;2023-08-20T09:04:49;99868.78;;;33.21;nan
63556;BME280;49700;48.072;7.800;2023-08-20T09:07:15;99868.41;;;32.94;nan
63556;BME280;49700;48.072;7.800;2023-08-20T09:09:45;99867.25;;;32.78;nan
63556;BME280;49700;48.072;7.800;2023-08-20T09:12:18;99861.81;;;32.90;nan
63556;BME280;49700;48.072;7.800;2023-08-20T09:14:47;99863.72;;;33.01;nan
63556;BME280;49700;48.072;7.800;2023-08-20T09:17:13;99861.94;;;32.95;nan
63556;BME280;49700;48.072;7.800;2023-08-20T09:19:39;99869.63;;;32.98;nan
63556;BME280;49700;48.072;7.800;2023-08-20T09:22:04;99864.28;;;32.91;nan
63556;BME280;49700;48.072;7.800;2023-08-20T09:24:46;99868.41;;;32.94;nan
63556;BME280;49700;48.072;7.800;2023-08-20T09:27:13;99859.00;;;33.08;nan
63556;BME280;49700;48.072;7.800;2023-08-20T09:29:46;99868.66;;;33.27;nan
63556;BME280;49700;48.072;7.800;2023-08-20T09:32:17;99863.16;;;33.39;nan
63556;BME280;49700;48.072;7.800;2023-08-20T09:37:50;99857.88;;;33.33;nan
63556;BME280;49700;48.072;7.800;2023-08-20T09:40:15;99866.59;;;33.35;nan
63556;BME280;49700;48.072;7.800;2023-08-20T09:42:41;99860.16;;;33.53;nan
63556;BME280;49700;48.072;7.800;2023-08-20T09:45:08;99855.19;;;33.61;nan
63556;BME280;49700;48.072;7.800;2023-08-20T09:47:36;99858.97;;;33.60;nan
63556;BME280;49700;48.072;7.800;2023-08-20T09:50:02;99854.59;;;33.59;nan
63556;BME280;49700;48.072;7.800;2023-08-20T09:52:36;99852.66;;;33.71;nan
63556;BME280;49700;48.072;7.800;2023-08-20T09:55:20;99853.09;;;33.80;nan
63556;BME280;49700;48.072;7.800;2023-08-20T09:57:47;99848.66;;;33.91;nan
63556;BME280;49700;48.072;7.800;2023-08-20T10:00:13;99842.69;;;33.94;nan
63556;BME280;49700;48.072;7.800;2023-08-20T10:02:40;99851.69;;;34.06;nan
63556;BME280;49700;48.072;7.800;2023-08-20T10:05:06;99850.78;;;34.18;nan
63556;BME280;49700;48.072;7.800;2023-08-20T10:07:33;99844.31;;;34.07;nan
63556;BME280;49700;48.072;7.800;2023-08-20T10:10:03;99848.34;;;34.04;nan
63556;BME280;49700;48.072;7.800;2023-08-20T10:12:30;99842.50;;;34.12;nan
63556;BME280;49700;48.072;7.800;2023-08-20T10:14:56;99845.41;;;34.06;nan
63556;BME280;49700;48.072;7.800;2023-08-20T10:17:23;99844.38;;;33.95;nan
63556;BME280;49700;48.072;7.800;2023-08-20T10:19:51;99845.59;;;34.04;nan
63556;BME280;49700;48.072;7.800;2023-08-20T10:22:18;99845.22;;;34.12;nan
63556;BME280;49700;48.072;7.800;2023-08-20T10:24:48;99845.31;;;34.18;nan
63556;BME280;49700;48.072;7.800;2023-08-20T10:27:24;99842.50;;;34.29;nan
63556;BME280;49700;48.072;7.800;2023-08-20T10:29:53;99838.03;;;34.40;nan
63556;BME280;49700;48.072;7.800;2023-08-20T10:32:18;99838.72;;;34.47;nan
63556;BME280;49700;48.072;7.800;2023-08-20T10:34:51;99843.75;;;34.55;nan
63556;BME280;49700;48.072;7.800;2023-08-20T10:37:26;99841.75;;;34.51;nan
63556;BME280;49700;48.072;7.800;2023-08-20T10:39:54;99836.56;;;34.49;nan
63556;BME280;49700;48.072;7.800;2023-08-20T10:45:07;99842.59;;;34.51;nan
63556;BME280;49700;48.072;7.800;2023-08-20T10:47:45;99833.25;;;34.47;nan
63556;BME280;49700;48.072;7.800;2023-08-20T10:50:17;99830.13;;;34.39;nan
63556;BME280;49700;48.072;7.800;2023-08-20T10:52:59;99828.38;;;34.49;nan
63556;BME280;49700;48.072;7.800;2023-08-20T10:55:24;99825.97;;;34.53;nan
63556;BME280;49700;48.072;7.800;2023-08-20T10:57:56;99820.38;;;34.60;nan
63556;BME280;49700;48.072;7.800;2023-08-20T11:00:22;99814.75;;;34.66;nan
63556;BME280;49700;48.072;7.800;2023-08-20T11:02:49;99828.47;;;34.54;nan
63556;BME280;49700;48.072;7.800;2023-08-20T11:05:22;99820.53;;;34.36;nan
63556;BME280;49700;48.072;7.800;2023-08-20T11:07:48;99821.09;;;34.21;nan
63556;BME280;49700;48.072;7.800;2023-08-20T11:10:15;99817.38;;;34.10;nan
63556;BME280;49700;48.072;7.800;2023-08-20T11:12:41;99821.56;;;34.01;nan
63556;BME280;49700;48.072;7.800;2023-08-20T11:15:12;99813.16;;;34.03;nan
63556;BME280;49700;48.072;7.800;2023-08-20T11:17:55;99818.06;;;34.18;nan
63556;BME280;49700;48.072;7.800;2023-08-20T11:20:22;99816.56;;;34.27;nan
63556;BME280;49700;48.072;7.800;2023-08-20T11:22:47;99806.81;;;34.31;nan
63556;BME280;49700;48.072;7.800;2023-08-20T11:25:13;99806.41;;;34.39;nan
63556;BME280;49700;48.072;7.800;2023-08-20T11:27:42;99811.44;;;34.47;nan
63556;BME280;49700;48.072;7.800;2023-08-20T11:30:09;99808.03;;;34.40;nan
63556;BME280;49700;48.072;7.800;2023-08-20T11:32:37;99809.63;;;34.36;nan
63556;BME280;49700;48.072;7.800;2023-08-20T11:35:04;99804.19;;;34.36;nan
63556;BME280;49700;48.072;7.800;2023-08-20T11:37:30;99801.69;;;34.34;nan
63556;BME280;49700;48.072;7.800;2023-08-20T11:39:55;99800.03;;;34.33;nan
63556;BME280;49700;48.072;7.800;2023-08-20T11:42:21;99797.06;;;34.35;nan
63556;BME280;49700;48.072;7.800;2023-08-20T11:44:47;99792.38;;;34.30;nan
63556;BME280;49700;48.072;7.800;2023-08-20T11:47:16;99789.28;;;34.27;nan
63556;BME280;49700;48.072;7.800;2023-08-20T11:49:42;99793.69;;;34.28;nan
63556;BME280;49700;48.072;7.800;2023-08-20T11:52:08;99786.91;;;34.30;nan
63556;BME280;49700;48.072;7.800;2023-08-20T11:54:35;99791.28;;;34.31;nan
63556;BME280;49700;48.072;7.800;2023-08-20T11:57:05;99784.50;;;34.34;nan
63556;BME280;49700;48.072;7.800;2023-08-20T11:59:31;99785.16;;;34.41;nan
63556;BME280;49700;48.072;7.800;2023-08-20T12:02:02;99781.34;;;34.42;nan
63556;BME280;49700;48.072;7.800;2023-08-20T12:04:31;99782.44;;;34.41;nan
63556;BME280;49700;48.072;7.800;2023-08-20T12:07:13;99776.09;;;34.35;nan
63556;BME280;49700;48.072;7.800;2023-08-20T12:09:42;99775.50;;;34.33;nan
63556;BME280;49700;48.072;7.800;2023-08-20T12:12:25;99772.69;;;34.28;nan
63556;BME280;49700;48.072;7.800;2023-08-20T12:14:51;99770.28;;;34.32;nan
63556;BME280;49700;48.072;7.800;2023-08-20T12:17:17;99764.84;;;34.32;nan
63556;BME280;49700;48.072;7.800;2023-08-20T12:19:44;99768.84;;;34.24;nan
63556;BME280;49700;48.072;7.800;2023-08-20T12:22:09;99767.34;;;34.17;nan
63556;BME280;49700;48.072;7.800;2023-08-20T12:24:35;99764.84;;;34.15;nan
63556;BME280;49700;48.072;7.800;2023-08-20T12:27:00;99763.22;;;34.14;nan
63556;BME280;49700;48.072;7.800;2023-08-20T12:29:26;99762.88;;;34.10;nan
63556;BME280;49700;48.072;7.800;2023-08-20T12:31:51;99759.66;;;34.13;nan
63556;BME280;49700;48.072;7.800;2023-08-20T12:34:16;99757.84;;;34.19;nan
63556;BME280;49700;48.072;7.800;2023-08-20T12:36:42;99757.06;;;34.24;nan
63556;BME280;49700;48.072;7.800;2023-08-20T12:39:08;99753.78;;;34.22;nan
63556;BME280;49700;48.072;7.800;2023-08-20T12:41:33;99751.53;;;34.19;nan
63556;BME280;49700;48.072;7.800;2023-08-20T12:44:01;99752.47;;;34.24;nan
63556;BME280;49700;48.072;7.800;2023-08-20T12:46:27;99752.28;;;34.31;nan
63556;BME280;49700;48.072;7.800;2023-08-20T12:48:52;99754.28;;;34.35;nan
63556;BME280;49700;48.072;7.800;2023-08-20T12:51:17;99757.06;;;34.41;nan
63556;BME280;49700;48.072;7.800;2023-08-20T12:53:43;99755.41;;;34.40;nan
63556;BME280;49700;48.072;7.800;2023-08-20T12:56:09;99757.91;;;34.41;nan
63556;BME280;49700;48.072;7.800;2023-08-20T12:58:35;99756.56;;;34.44;nan
63556;BME280;49700;48.072;7.800;2023-08-20T13:01:00;99750.84;;;34.45;nan
63556;BME280;49700;48.072;7.800;2023-08-20T13:03:26;99750.22;;;34.38;nan
63556;BME280;49700;48.072;7.800;2023-08-20T13:05:53;99748.81;;;34.35;nan
63556;BME280;49700;48.072;7.800;2023-08-20T13:08:19;99747.16;;;34.34;nan
63556;BME280;49700;48.072;7.800;2023-08-20T13:10:50;99748.53;;;34.37;nan
63556;BME280;49700;48.072;7.800;2023-08-20T13:13:20;99745.66;;;34.44;nan
63556;BME280;49700;48.072;7.800;2023-08-20T13:15:46;99746.22;;;34.46;nan
63556;BME280;49700;48.072;7.800;2023-08-20T13:18:12;99742.75;;;34.50;nan
63556;BME280;49700;48.072;7.800;2023-08-20T13:20:39;99740.31;;;34.54;nan
63556;BME280;49700;48.072;7.800;2023-08-20T13:23:05;99738.53;;;34.60;nan
63556;BME280;49700;48.072;7.800;2023-08-20T13:25:30;99735.84;;;34.65;nan
63556;BME280;49700;48.072;7.800;2023-08-20T13:27:56;99742.97;;;34.66;nan